createdAt,value
2022-08-22T00:02:46.314Z,0.98
2022-08-22T00:02:52.693Z,0.95
2022-08-22T00:02:53.605Z,0.90
2022-08-22T00:02:54.996Z,1.23
2022-08-22T00:02:56.789Z,0.75
2022-08-22T00:03:16.060Z,0.95
2022-08-22T00:06:08.108Z,0.90
2022-08-22T00:09:12.961Z,1.33
2022-08-22T00:12:15.675Z,0.90
2022-08-22T00:15:13.217Z,1.08
2022-08-22T00:18:28.508Z,1.23
2022-08-22T00:21:32.765Z,1.08
2022-08-22T00:24:41.625Z,1.10
2022-08-22T00:27:34.112Z,0.90
2022-08-22T00:30:19.945Z,1.27
2022-08-22T00:33:18.360Z,1.10
2022-08-22T00:36:18.853Z,1.38
2022-08-22T00:39:15.847Z,1.63
2022-08-22T00:42:44.299Z,1.50
2022-08-22T00:45:44.729Z,1.33
2022-08-22T00:48:46.072Z,1.20
2022-08-22T00:52:08.877Z,1.10
2022-08-22T00:55:14.276Z,1.00
2022-08-22T00:58:25.635Z,1.00
2022-08-22T01:01:14.457Z,0.80
2022-08-22T01:04:21.957Z,1.17
2022-08-22T01:07:23.219Z,1.88
2022-08-22T01:10:29.481Z,1.20
2022-08-22T01:13:43.695Z,1.27
2022-08-22T01:16:35.082Z,1.45
2022-08-22T01:19:58.424Z,0.98
2022-08-22T01:23:20.689Z,0.90
2022-08-22T01:26:25.071Z,1.20
2022-08-22T01:29:28.401Z,1.10
2022-08-22T01:32:57.686Z,1.17
2022-08-22T01:36:03.620Z,1.20
2022-08-22T01:39:03.075Z,1.08
2022-08-22T01:42:25.115Z,1.60
2022-08-22T01:45:40.997Z,1.08
2022-08-22T01:48:54.239Z,1.30
2022-08-22T01:51:51.674Z,1.08
2022-08-22T01:54:54.789Z,0.93
2022-08-22T01:57:56.230Z,1.10
2022-08-22T02:01:03.182Z,1.23
2022-08-22T02:04:04.964Z,1.10
2022-08-22T02:07:04.113Z,1.30
2022-08-22T02:10:10.574Z,1.30
2022-08-22T02:13:17.330Z,0.95
2022-08-22T02:16:32.041Z,1.33
2022-08-22T02:19:17.773Z,0.93
2022-08-22T02:22:19.695Z,1.10
2022-08-22T02:25:17.954Z,1.08
2022-08-22T02:28:15.834Z,0.90
2022-08-22T02:31:16.849Z,1.30
2022-08-22T02:34:33.975Z,1.70
2022-08-22T02:37:31.981Z,0.80
2022-08-22T02:40:30.426Z,1.52
2022-08-22T02:43:23.969Z,1.00
2022-08-22T02:46:22.124Z,1.58
2022-08-22T02:49:24.070Z,1.52
2022-08-22T02:52:18.814Z,1.90
2022-08-22T02:55:11.584Z,1.83
2022-08-22T02:58:08.527Z,1.85
2022-08-22T03:01:02.676Z,0.95
2022-08-22T03:03:49.019Z,1.92
2022-08-22T03:06:42.836Z,1.52
2022-08-22T03:09:37.025Z,1.02
2022-08-22T03:12:33.257Z,1.45
2022-08-22T03:15:28.051Z,1.00
2022-08-22T03:18:20.172Z,1.17
2022-08-22T03:21:09.432Z,1.30
2022-08-22T03:24:01.803Z,1.45
2022-08-22T03:27:08.780Z,1.75
2022-08-22T03:30:01.348Z,1.20
2022-08-22T03:32:54.610Z,1.95
2022-08-22T03:35:46.020Z,1.20
2022-08-22T03:38:34.100Z,1.80
2022-08-22T03:41:49.211Z,1.20
2022-08-22T03:44:43.651Z,0.90
2022-08-22T03:47:38.536Z,0.82
2022-08-22T03:50:45.419Z,1.30
2022-08-22T03:54:03.127Z,1.35
2022-08-22T03:57:24.219Z,1.17
2022-08-22T04:00:29.247Z,1.08
2022-08-22T04:03:42.844Z,2.13
2022-08-22T04:06:57.097Z,1.65
2022-08-22T04:10:13.850Z,1.10
2022-08-22T04:13:28.994Z,1.15
2022-08-22T04:16:43.326Z,2.00
2022-08-22T04:20:13.314Z,1.13
2022-08-22T04:23:41.213Z,1.35
2022-08-22T04:26:51.347Z,1.83
2022-08-22T04:29:49.803Z,2.05
2022-08-22T04:32:49.991Z,1.70
2022-08-22T04:35:51.378Z,1.27
2022-08-22T04:38:44.379Z,1.30
2022-08-22T04:42:29.208Z,1.48
2022-08-22T04:45:31.931Z,1.30
2022-08-22T04:48:23.773Z,1.08
2022-08-22T04:51:33.161Z,1.60
2022-08-22T04:54:53.444Z,1.10
2022-08-22T04:58:06.405Z,1.80
2022-08-22T05:01:11.938Z,1.65
2022-08-22T05:04:07.329Z,2.10
2022-08-22T05:07:03.182Z,1.95
2022-08-22T05:10:09.291Z,1.50
2022-08-22T05:13:02.671Z,1.83
2022-08-22T05:15:51.930Z,2.10
2022-08-22T05:18:45.104Z,1.52
2022-08-22T05:21:37.189Z,1.92
2022-08-22T05:24:37.408Z,2.15
2022-08-22T05:27:31.252Z,2.38
2022-08-22T05:30:28.362Z,1.27
2022-08-22T05:33:26.590Z,1.48
2022-08-22T05:36:28.801Z,1.45
2022-08-22T05:39:18.759Z,1.60
2022-08-22T05:42:04.735Z,1.42
2022-08-22T05:44:50.584Z,1.40
2022-08-22T05:48:07.856Z,2.30
2022-08-22T05:51:04.460Z,1.90
2022-08-22T05:53:56.622Z,1.65
2022-08-22T05:56:47.161Z,1.67
2022-08-22T05:59:38.287Z,1.25
2022-08-22T06:02:38.925Z,1.27
2022-08-22T06:05:36.279Z,1.85
2022-08-22T06:08:31.683Z,1.88
2022-08-22T06:11:25.514Z,1.23
2022-08-22T06:14:40.401Z,1.42
2022-08-22T06:17:34.602Z,1.00
2022-08-22T06:20:25.817Z,1.65
2022-08-22T06:23:24.760Z,1.58
2022-08-22T06:26:21.210Z,0.90
2022-08-22T06:29:09.283Z,1.52
2022-08-22T06:31:56.377Z,1.10
2022-08-22T06:34:45.233Z,1.33
2022-08-22T06:37:35.297Z,1.33
2022-08-22T06:40:21.724Z,0.90
2022-08-22T06:43:07.796Z,1.55
2022-08-22T06:45:53.434Z,0.87
2022-08-22T06:48:39.020Z,1.17
2022-08-22T06:51:27.759Z,1.67
2022-08-22T06:54:21.984Z,1.00
2022-08-22T06:57:27.020Z,1.35
2022-08-22T07:00:16.981Z,0.95
2022-08-22T07:03:13.168Z,1.42
2022-08-22T07:05:59.573Z,1.73
2022-08-22T07:08:46.089Z,0.75
2022-08-22T07:11:37.075Z,1.02
2022-08-22T07:14:41.587Z,1.10
2022-08-22T07:17:31.135Z,1.15
2022-08-22T07:20:24.496Z,1.08
2022-08-22T07:23:12.780Z,1.30
2022-08-22T07:26:08.901Z,1.17
2022-08-22T07:29:11.497Z,1.20
2022-08-22T07:32:10.672Z,0.75
2022-08-22T07:35:19.226Z,1.00
2022-08-22T07:38:33.231Z,1.48
2022-08-22T07:41:24.874Z,1.00
2022-08-22T07:44:23.995Z,1.20
2022-08-22T07:47:17.994Z,0.90
2022-08-22T07:50:12.850Z,0.80
2022-08-22T07:53:09.860Z,0.98
2022-08-22T07:55:57.695Z,0.80
2022-08-22T07:58:47.677Z,1.30
2022-08-22T08:01:34.174Z,1.27
2022-08-22T08:04:24.794Z,0.82
2022-08-22T08:07:14.741Z,1.00
2022-08-22T08:10:08.854Z,0.70
2022-08-22T08:13:02.478Z,0.75
2022-08-22T08:15:50.586Z,0.90
2022-08-22T08:18:39.107Z,1.00
2022-08-22T08:21:33.423Z,0.68
2022-08-22T08:24:41.354Z,0.70
2022-08-22T08:27:53.608Z,1.00
2022-08-22T08:30:44.811Z,0.60
2022-08-22T08:33:32.168Z,0.77
2022-08-22T08:36:38.894Z,0.90
2022-08-22T08:39:35.390Z,0.65
2022-08-22T08:43:10.704Z,0.55
2022-08-22T08:46:34.553Z,1.70
2022-08-22T08:50:15.764Z,1.83
2022-08-22T08:53:24.200Z,0.68
2022-08-22T08:56:19.651Z,0.95
2022-08-22T08:59:14.473Z,0.80
2022-08-22T09:02:05.937Z,0.70
2022-08-22T09:05:09.338Z,0.50
2022-08-22T09:08:15.038Z,0.40
2022-08-22T09:11:46.651Z,1.00
2022-08-22T09:14:54.603Z,0.85
2022-08-22T09:18:05.175Z,0.35
2022-08-22T09:21:27.597Z,0.45
2022-08-22T09:24:41.272Z,0.70
2022-08-22T09:27:33.888Z,1.58
2022-08-22T09:30:28.715Z,0.75
2022-08-22T09:33:19.615Z,0.60
2022-08-22T09:36:22.186Z,0.40
2022-08-22T09:39:41.930Z,0.80
2022-08-22T09:43:05.601Z,0.40
2022-08-22T09:46:18.640Z,0.60
2022-08-22T09:49:08.473Z,0.63
2022-08-22T09:52:14.556Z,0.50
2022-08-22T09:55:11.729Z,0.75
2022-08-22T09:58:12.762Z,0.73
2022-08-22T10:01:20.763Z,0.30
2022-08-22T10:04:44.118Z,0.57
2022-08-22T10:08:11.691Z,0.60
2022-08-22T10:11:23.761Z,0.73
2022-08-22T10:14:24.118Z,0.50
2022-08-22T10:17:22.754Z,0.50
2022-08-22T10:20:29.905Z,0.80
2022-08-22T10:23:26.846Z,0.40
2022-08-22T10:26:38.818Z,0.47
2022-08-22T10:29:34.812Z,0.40
2022-08-22T10:32:26.949Z,0.70
2022-08-22T10:35:15.346Z,0.77
2022-08-22T10:38:07.425Z,1.30
2022-08-22T10:41:17.987Z,0.65
2022-08-22T10:44:23.728Z,0.45
2022-08-22T10:47:24.104Z,0.57
2022-08-22T10:50:20.244Z,0.52
2022-08-22T10:53:37.253Z,0.50
2022-08-22T10:56:32.093Z,0.60
2022-08-22T10:59:38.523Z,0.38
2022-08-22T11:02:35.000Z,0.75
2022-08-22T11:05:32.398Z,0.50
2022-08-22T11:08:34.696Z,0.40
2022-08-22T11:11:51.417Z,0.55
2022-08-22T11:14:43.728Z,0.85
2022-08-22T11:17:59.439Z,0.88
2022-08-22T11:20:57.201Z,1.10
2022-08-22T11:24:01.063Z,0.30
2022-08-22T11:27:17.743Z,0.52
2022-08-22T11:30:18.340Z,0.50
2022-08-22T11:33:46.437Z,0.32
2022-08-22T11:36:47.070Z,0.60
2022-08-22T11:39:43.401Z,0.35
2022-08-22T11:42:47.413Z,0.45
2022-08-22T11:45:42.778Z,0.47
2022-08-22T11:48:42.541Z,0.45
2022-08-22T11:52:10.865Z,0.20
2022-08-22T11:55:18.024Z,0.20
2022-08-22T11:58:35.827Z,0.57
2022-08-22T12:01:40.575Z,0.32
2022-08-22T12:04:44.167Z,0.57
2022-08-22T12:07:33.024Z,0.82
2022-08-22T12:10:26.060Z,0.40
2022-08-22T12:13:20.078Z,0.40
2022-08-22T12:17:02.604Z,0.52
2022-08-22T12:20:18.646Z,0.40
2022-08-22T12:23:22.952Z,0.30
2022-08-22T12:26:44.966Z,0.30
2022-08-22T12:29:48.692Z,0.30
2022-08-22T12:32:48.979Z,0.40
2022-08-22T12:35:52.958Z,0.38
2022-08-22T12:39:18.041Z,0.20
2022-08-22T12:42:31.882Z,0.40
2022-08-22T12:45:24.593Z,0.68
2022-08-22T12:48:47.657Z,3.40
2022-08-22T12:51:41.002Z,0.38
2022-08-22T12:54:39.893Z,0.30
2022-08-22T12:57:54.371Z,0.52
2022-08-22T13:00:45.182Z,0.47
2022-08-22T13:03:41.032Z,0.40
2022-08-22T13:06:42.130Z,0.57
2022-08-22T13:09:38.700Z,0.30
2022-08-22T13:12:33.033Z,0.40
2022-08-22T13:15:25.730Z,0.45
2022-08-22T13:18:30.533Z,0.60
2022-08-22T13:21:21.912Z,0.63
2022-08-22T13:24:16.996Z,0.60
2022-08-22T13:27:15.645Z,0.40
2022-08-22T13:30:07.489Z,0.57
2022-08-22T13:33:03.285Z,0.38
2022-08-22T13:36:21.280Z,0.43
2022-08-22T13:39:13.236Z,0.40
2022-08-22T13:42:04.102Z,0.40
2022-08-22T13:45:05.159Z,0.63
2022-08-22T13:48:03.811Z,0.40
2022-08-22T13:51:09.713Z,0.40
2022-08-22T13:54:18.720Z,0.55
2022-08-22T13:57:26.436Z,0.70
2022-08-22T14:00:28.792Z,0.43
2022-08-22T14:03:21.247Z,0.65
2022-08-22T14:06:37.074Z,0.73
2022-08-22T14:12:33.526Z,0.40
2022-08-22T14:15:45.055Z,0.47
2022-08-22T14:18:36.487Z,0.45
2022-08-22T14:21:42.849Z,0.73
2022-08-22T14:24:45.401Z,0.50
2022-08-22T14:27:43.831Z,0.60
2022-08-22T14:30:37.157Z,0.80
2022-08-22T14:33:26.577Z,0.70
2022-08-22T14:36:24.840Z,0.90
2022-08-22T14:39:27.412Z,0.57
2022-08-22T14:42:24.270Z,0.60
2022-08-22T14:45:33.182Z,0.88
2022-08-22T14:48:31.429Z,0.70
2022-08-22T14:51:22.971Z,0.80
2022-08-22T14:54:21.038Z,0.50
2022-08-22T14:57:12.792Z,0.50
2022-08-22T15:00:12.228Z,0.40
2022-08-22T15:03:23.457Z,0.50
2022-08-22T15:06:28.932Z,0.77
2022-08-22T15:09:52.601Z,0.60
2022-08-22T15:12:45.057Z,0.70
2022-08-22T15:15:54.282Z,0.60
2022-08-22T15:18:41.510Z,0.80
2022-08-22T15:21:41.416Z,0.50
2022-08-22T15:24:28.320Z,0.50
2022-08-22T15:27:18.740Z,0.43
2022-08-22T15:30:20.388Z,0.63
2022-08-22T15:33:23.637Z,0.40
2022-08-22T15:36:15.859Z,0.73
2022-08-22T15:39:26.586Z,0.88
2022-08-22T15:42:25.943Z,0.45
2022-08-22T15:45:29.679Z,0.50
2022-08-22T15:48:30.948Z,0.70
2022-08-22T15:51:33.959Z,0.45
2022-08-22T15:54:46.867Z,0.70
2022-08-22T15:57:47.485Z,0.43
2022-08-22T16:00:43.706Z,0.50
2022-08-22T16:03:34.012Z,0.60
2022-08-22T16:06:44.840Z,0.85
2022-08-22T16:09:43.479Z,0.85
2022-08-22T16:12:34.712Z,0.50
2022-08-22T16:15:56.374Z,0.60
2022-08-22T16:18:45.023Z,0.60
2022-08-22T16:21:30.265Z,0.50
2022-08-22T16:24:15.914Z,0.60
2022-08-22T16:27:19.086Z,0.70
2022-08-22T16:30:12.749Z,0.45
2022-08-22T16:32:59.725Z,0.85
2022-08-22T16:36:16.269Z,0.60
2022-08-22T16:39:01.967Z,0.93
2022-08-22T16:41:54.108Z,0.95
2022-08-22T16:45:05.241Z,0.70
2022-08-22T16:47:58.211Z,0.82
2022-08-22T16:51:00.323Z,0.90
2022-08-22T16:54:06.600Z,0.80
2022-08-22T16:57:05.428Z,0.80
2022-08-22T17:00:22.772Z,0.60
2022-08-22T17:06:23.177Z,0.60
2022-08-22T17:09:43.298Z,0.55
2022-08-22T17:12:38.148Z,0.50
2022-08-22T17:15:34.666Z,0.52
2022-08-22T17:21:25.877Z,0.63
2022-08-22T17:24:33.613Z,0.43
2022-08-22T17:27:30.093Z,0.60
2022-08-22T17:30:28.434Z,0.70
2022-08-22T17:33:27.808Z,0.52
2022-08-22T17:36:27.601Z,0.55
2022-08-22T17:39:37.614Z,0.50
2022-08-22T17:42:44.727Z,0.73
2022-08-22T17:46:03.155Z,0.38
2022-08-22T17:49:21.701Z,0.50
2022-08-22T17:52:24.977Z,0.82
2022-08-22T17:55:21.723Z,0.52
2022-08-22T17:58:37.546Z,0.60
2022-08-22T18:01:37.383Z,0.60
2022-08-22T18:04:47.396Z,0.63
2022-08-22T18:07:44.987Z,0.47
2022-08-22T18:10:38.279Z,0.60
2022-08-22T18:13:45.607Z,0.50
2022-08-22T18:16:42.759Z,0.93
2022-08-22T18:19:51.543Z,0.52
2022-08-22T18:22:39.758Z,0.60
2022-08-22T18:26:17.490Z,1.25
2022-08-22T18:29:13.728Z,0.52
2022-08-22T18:32:14.230Z,0.50
2022-08-22T18:34:59.764Z,0.70
2022-08-22T18:38:23.092Z,0.68
2022-08-22T18:41:15.855Z,1.15
2022-08-22T18:44:11.092Z,0.40
2022-08-22T18:46:59.946Z,0.52
2022-08-22T18:49:48.503Z,0.88
2022-08-22T18:52:37.546Z,0.77
2022-08-22T18:55:53.530Z,0.77
2022-08-22T18:58:45.848Z,0.40
2022-08-22T19:02:08.446Z,0.82
2022-08-22T19:05:22.024Z,0.55
2022-08-22T19:08:44.694Z,0.52
2022-08-22T19:11:52.508Z,1.20
2022-08-22T19:14:59.704Z,0.45
2022-08-22T19:18:05.876Z,0.55
2022-08-22T19:21:32.856Z,0.60
2022-08-22T19:24:27.247Z,0.40
2022-08-22T19:27:18.420Z,0.57
2022-08-22T19:30:25.559Z,0.57
2022-08-22T19:33:34.527Z,0.50
2022-08-22T19:36:32.413Z,0.60
2022-08-22T19:39:54.409Z,0.55
2022-08-22T19:42:43.141Z,0.50
2022-08-22T19:45:29.298Z,0.50
2022-08-22T19:51:20.529Z,0.55
2022-08-22T19:54:23.174Z,0.65
2022-08-22T19:57:18.786Z,0.60
2022-08-22T20:00:12.098Z,0.40
2022-08-22T20:03:05.291Z,0.70
2022-08-22T20:06:33.776Z,0.60
2022-08-22T20:09:42.499Z,0.60
2022-08-22T20:12:49.459Z,0.50
2022-08-22T20:16:02.847Z,0.90
2022-08-22T20:19:07.695Z,0.90
2022-08-22T20:22:03.731Z,0.85
2022-08-22T20:25:03.232Z,0.50
2022-08-22T20:28:02.689Z,0.50
2022-08-22T20:30:50.898Z,0.50
2022-08-22T20:33:43.391Z,0.70
2022-08-22T20:36:32.422Z,0.70
2022-08-22T20:39:25.386Z,0.90
2022-08-22T20:42:15.878Z,0.38
2022-08-22T20:45:12.265Z,0.40
2022-08-22T20:47:58.188Z,0.40
2022-08-22T20:50:43.800Z,0.50
2022-08-22T20:53:29.097Z,0.68
2022-08-22T20:56:14.959Z,0.60
2022-08-22T20:59:01.330Z,0.73
2022-08-22T21:05:18.543Z,0.95
2022-08-22T21:08:26.392Z,0.55
2022-08-22T21:11:40.078Z,1.02
2022-08-22T21:14:31.432Z,0.63
2022-08-22T21:17:29.234Z,0.70
2022-08-22T21:20:22.160Z,0.60
2022-08-22T21:23:13.605Z,0.88
2022-08-22T21:26:24.928Z,0.82
2022-08-22T21:29:10.453Z,0.55
2022-08-22T21:32:14.110Z,0.93
2022-08-22T21:35:00.749Z,0.80
2022-08-22T21:40:37.831Z,0.50
2022-08-22T21:43:34.046Z,0.40
2022-08-22T21:46:28.747Z,0.60
2022-08-22T21:49:26.090Z,0.65
2022-08-22T21:52:11.518Z,0.52
2022-08-22T21:55:30.063Z,0.45
2022-08-22T21:58:36.123Z,0.47
2022-08-22T22:01:31.580Z,0.50
2022-08-22T22:04:18.344Z,0.77
2022-08-22T22:07:04.046Z,0.57
2022-08-22T22:09:54.468Z,0.60
2022-08-22T22:12:42.375Z,0.85
2022-08-22T22:15:31.873Z,0.70
2022-08-22T22:18:23.856Z,0.60
2022-08-22T22:21:09.525Z,0.40
2022-08-22T22:23:58.393Z,0.60
2022-08-22T22:26:44.351Z,1.30
2022-08-22T22:29:29.741Z,0.90
2022-08-22T22:32:15.266Z,0.47
2022-08-22T22:35:00.598Z,0.40
2022-08-22T22:37:46.641Z,0.60
2022-08-22T22:40:32.173Z,0.50
2022-08-22T22:43:17.802Z,0.55
2022-08-22T22:46:03.592Z,0.57
2022-08-22T22:48:48.999Z,0.73
2022-08-22T22:51:34.617Z,1.00
2022-08-22T22:54:20.614Z,0.57
2022-08-22T22:57:14.536Z,0.63
2022-08-22T23:00:04.131Z,0.50
2022-08-22T23:02:49.697Z,0.77
2022-08-22T23:05:35.705Z,0.63
2022-08-22T23:08:20.969Z,0.80
2022-08-22T23:11:15.270Z,0.60
2022-08-22T23:14:01.567Z,0.88
2022-08-22T23:16:47.127Z,0.70
2022-08-22T23:19:32.911Z,0.80
2022-08-22T23:22:19.028Z,0.50
2022-08-22T23:25:05.198Z,0.75
2022-08-22T23:27:52.498Z,0.63
2022-08-22T23:30:37.961Z,0.75
2022-08-22T23:33:23.517Z,0.90
2022-08-22T23:36:15.793Z,0.47
2022-08-22T23:39:02.083Z,0.60
2022-08-22T23:41:48.170Z,0.40
2022-08-22T23:44:35.882Z,0.50
2022-08-22T23:47:21.288Z,0.50
2022-08-22T23:50:07.041Z,1.73
2022-08-22T23:52:52.639Z,0.60
2022-08-22T23:55:37.961Z,1.23
2022-08-22T23:58:23.371Z,0.98
